Time;durP1;ratioP1;P1;durP2;ratioP2;P2;SDS_P1;SDS_P2;PMS_P1;PMS_P2;Temp;Humidity;BMP_temperature;BMP_pressure;BME280_temperature;BME280_humidity;BME280_pressure;Samples;Min_cycle;Max_cycle;Signal;HPM_P1;HPM_P2
2024/03/29 00:01:32;;;;;;;0.10;0.10;;;11.20;95.90;;;;;;4145887;28;20149;-52
2024/03/29 00:03:34;;;;;;;0.35;0.10;;;11.20;96.60;;;;;;4146189;28;20061;-54
2024/03/29 00:05:37;;;;;;;0.35;0.32;;;11.20;96.90;;;;;;4145755;28;20058;-54
2024/03/29 00:07:38;;;;;;;1.23;0.98;;;11.30;96.80;;;;;;4146016;28;20042;-54
2024/03/29 00:09:40;;;;;;;0.10;0.10;;;11.20;96.80;;;;;;4145945;28;20050;-55
2024/03/29 00:11:41;;;;;;;0.73;0.20;;;11.20;97.00;;;;;;4146222;28;20054;-55
2024/03/29 00:13:42;;;;;;;0.20;0.20;;;11.20;97.20;;;;;;4129904;28;20056;-54
2024/03/29 00:15:46;;;;;;;0.88;0.25;;;11.10;97.30;;;;;;4145916;28;20045;-53
2024/03/29 00:17:47;;;;;;;0.40;0.40;;;11.10;97.30;;;;;;4145822;28;20062;-54
2024/03/29 00:19:48;;;;;;;0.75;0.28;;;11.10;97.80;;;;;;4149070;28;20446;-54
2024/03/29 00:21:51;;;;;;;0.10;0.10;;;11.10;98.20;;;;;;4148976;28;20041;-54
2024/03/29 00:23:53;;;;;;;0.10;0.10;;;11.00;98.10;;;;;;4148936;28;20440;-53
2024/03/29 00:25:58;;;;;;;0.28;0.28;;;10.90;98.60;;;;;;4149153;28;20049;-54
2024/03/29 00:28:01;;;;;;;0.10;0.10;;;10.90;98.60;;;;;;4149060;28;20577;-54
2024/03/29 00:30:03;;;;;;;0.75;0.20;;;10.90;98.80;;;;;;4148952;28;20056;-54
2024/03/29 00:32:05;;;;;;;0.20;0.20;;;11.00;99.10;;;;;;4133478;28;20050;-52
2024/03/29 00:34:07;;;;;;;0.20;0.20;;;11.00;99.30;;;;;;4148506;28;20049;-50
2024/03/29 00:36:08;;;;;;;0.20;0.10;;;10.90;99.20;;;;;;4148799;28;20053;-51
2024/03/29 00:38:11;;;;;;;0.43;0.35;;;10.90;99.10;;;;;;4148857;28;20513;-51
2024/03/29 00:40:13;;;;;;;0.98;0.20;;;10.90;99.20;;;;;;4149170;28;20068;-51
2024/03/29 00:42:19;;;;;;;0.40;0.10;;;10.90;99.20;;;;;;4148964;28;20045;-52
2024/03/29 00:44:20;;;;;;;0.35;0.20;;;10.90;99.40;;;;;;4148846;28;20060;-54
2024/03/29 00:46:22;;;;;;;0.32;0.20;;;11.00;99.80;;;;;;4148837;28;20045;-51
2024/03/29 00:48:23;;;;;;;0.40;0.20;;;11.00;99.40;;;;;;4148463;28;20049;-53
2024/03/29 00:50:24;;;;;;;2.17;1.02;;;11.00;99.30;;;;;;4148693;28;20190;-52
2024/03/29 00:52:26;;;;;;;0.25;0.15;;;11.00;99.40;;;;;;4132425;28;20050;-50
2024/03/29 00:54:29;;;;;;;0.35;0.10;;;11.00;99.60;;;;;;4148941;28;20060;-53
2024/03/29 00:56:30;;;;;;;0.10;0.10;;;11.00;99.70;;;;;;4132424;28;20377;-53
2024/03/29 00:58:31;;;;;;;7.50;0.15;;;10.90;99.50;;;;;;4148550;28;20054;-52
2024/03/29 01:00:33;;;;;;;0.10;0.10;;;11.00;99.30;;;;;;4148606;28;20355;-52
2024/03/29 01:02:34;;;;;;;0.98;0.40;;;11.00;98.70;;;;;;4148578;28;20050;-54
2024/03/29 01:04:37;;;;;;;0.32;0.20;;;11.10;99.20;;;;;;4148408;28;20046;-54
2024/03/29 01:06:40;;;;;;;0.80;0.10;;;11.10;98.90;;;;;;4148574;28;20072;-54
2024/03/29 01:08:41;;;;;;;0.93;0.30;;;11.10;99.30;;;;;;4148638;28;20481;-53
2024/03/29 01:10:44;;;;;;;0.30;0.28;;;11.10;99.10;;;;;;4148217;28;20042;-54
2024/03/29 01:12:46;;;;;;;3.65;1.40;;;11.20;98.70;;;;;;4148445;28;20521;-52
2024/03/29 01:14:47;;;;;;;0.10;0.10;;;11.20;99.00;;;;;;4148338;28;20124;-54
2024/03/29 01:16:49;;;;;;;0.85;0.38;;;11.20;98.40;;;;;;4148236;28;20037;-54
2024/03/29 01:18:52;;;;;;;0.80;0.20;;;11.20;98.80;;;;;;4147824;28;20053;-55
2024/03/29 01:20:53;;;;;;;5.88;0.30;;;11.10;98.70;;;;;;4148142;28;20045;-51
2024/03/29 01:22:55;;;;;;;0.10;0.10;;;11.10;98.60;;;;;;4131908;28;20042;-53
2024/03/29 01:24:57;;;;;;;0.10;0.10;;;11.20;98.90;;;;;;4148054;28;20052;-53
2024/03/29 01:27:00;;;;;;;0.30;0.10;;;11.20;99.50;;;;;;4148133;28;20107;-53
2024/03/29 01:29:02;;;;;;;0.15;0.10;;;11.20;99.90;;;;;;4147727;28;20057;-53
2024/03/29 01:31:04;;;;;;;0.20;0.20;;;11.10;98.50;;;;;;4150322;28;20105;-51
2024/03/29 01:33:06;;;;;;;0.20;0.20;;;11.10;98.30;;;;;;4147468;28;20056;-53
2024/03/29 01:35:08;;;;;;;1.05;0.43;;;11.20;98.60;;;;;;4148140;28;20335;-52
2024/03/29 01:37:09;;;;;;;0.20;0.10;;;11.30;98.60;;;;;;4148279;28;20060;-51
2024/03/29 01:39:14;;;;;;;0.10;0.10;;;11.30;97.70;;;;;;4131778;28;20043;-52
2024/03/29 01:41:15;;;;;;;;;;;11.30;98.20;;;;;;4148308;28;20058;-53
2024/03/29 01:43:18;;;;;;;3.53;0.40;;;11.30;98.60;;;;;;4147883;28;20356;-53
2024/03/29 01:45:20;;;;;;;0.28;0.10;;;11.30;98.30;;;;;;4149333;28;20401;-54
2024/03/29 01:47:21;;;;;;;0.28;0.20;;;11.40;98.10;;;;;;4147558;28;20090;-53
2024/03/29 01:49:22;;;;;;;0.20;0.13;;;11.40;98.90;;;;;;4147632;28;20050;-52
2024/03/29 01:51:24;;;;;;;0.10;0.10;;;11.30;99.70;;;;;;4147678;28;20058;-52
2024/03/29 01:53:27;;;;;;;0.40;0.13;;;11.20;99.80;;;;;;4147533;28;20052;-52
2024/03/29 01:55:28;;;;;;;0.85;0.45;;;11.20;99.10;;;;;;4147636;28;20050;-53
2024/03/29 01:57:30;;;;;;;17.02;1.95;;;11.20;99.10;;;;;;4147552;28;20060;-52
2024/03/29 01:59:33;;;;;;;0.20;0.17;;;11.20;99.80;;;;;;4147711;28;20050;-52
2024/03/29 02:01:36;;;;;;;0.70;0.30;;;11.10;99.90;;;;;;4147236;28;20049;-52
2024/03/29 02:03:37;;;;;;;0.65;0.25;;;11.10;99.00;;;;;;4147536;28;20054;-52
2024/03/29 02:05:40;;;;;;;0.80;0.35;;;11.20;99.20;;;;;;4147414;28;20512;-53
2024/03/29 02:07:42;;;;;;;0.13;0.10;;;11.20;99.70;;;;;;4147515;28;20076;-53
2024/03/29 02:09:43;;;;;;;0.80;0.40;;;11.10;99.80;;;;;;4147359;28;20054;-54
2024/03/29 02:11:46;;;;;;;3.20;0.35;;;11.10;99.30;;;;;;4147405;28;20481;-51
2024/03/29 02:13:49;;;;;;;0.55;0.25;;;11.00;99.70;;;;;;4147490;28;20045;-52
2024/03/29 02:15:52;;;;;;;0.15;0.15;;;11.00;99.90;;;;;;4147090;28;20402;-52
2024/03/29 02:17:53;;;;;;;0.75;0.55;;;10.90;99.90;;;;;;4147071;28;20053;-51
2024/03/29 02:19:55;;;;;;;0.10;0.10;;;11.00;99.90;;;;;;4147132;28;20050;-52
2024/03/29 02:21:59;;;;;;;0.35;0.10;;;11.00;99.90;;;;;;4146973;28;20072;-51
2024/03/29 02:24:06;;;;;;;0.10;0.10;;;11.00;99.90;;;;;;4147127;28;20056;-56
2024/03/29 02:26:08;;;;;;;0.30;0.30;;;11.00;99.90;;;;;;4147190;28;20061;-52
2024/03/29 02:28:09;;;;;;;0.30;0.30;;;11.10;99.90;;;;;;4147325;28;20151;-53
2024/03/29 02:30:14;;;;;;;0.13;0.10;;;11.10;99.90;;;;;;4147034;28;20453;-52
2024/03/29 02:32:15;;;;;;;;;;;11.10;99.90;;;;;;4147570;28;20050;-52
2024/03/29 02:34:17;;;;;;;0.20;0.20;;;11.10;99.90;;;;;;4147042;28;19927;-51
2024/03/29 02:36:19;;;;;;;1.88;0.80;;;11.10;99.90;;;;;;4147002;28;20041;-53
2024/03/29 02:38:20;;;;;;;1.10;0.38;;;11.10;99.90;;;;;;4130957;28;20047;-51
2024/03/29 02:40:23;;;;;;;0.98;0.38;;;11.10;99.90;;;;;;4146681;28;20419;-53
2024/03/29 02:42:24;;;;;;;1.38;0.65;;;11.10;99.90;;;;;;4130617;28;20528;-54
2024/03/29 02:44:26;;;;;;;0.30;0.30;;;11.10;99.90;;;;;;4146723;28;20064;-53
2024/03/29 02:46:27;;;;;;;0.15;0.15;;;11.20;99.90;;;;;;4146828;28;20046;-53
2024/03/29 02:48:28;;;;;;;1.10;0.30;;;11.20;99.90;;;;;;4146946;28;20046;-51
2024/03/29 02:50:30;;;;;;;0.28;0.15;;;11.20;99.90;;;;;;4146836;28;20042;-53
2024/03/29 02:52:31;;;;;;;0.40;0.20;;;11.20;99.90;;;;;;4146532;28;20050;-53
2024/03/29 02:54:33;;;;;;;0.60;0.30;;;11.20;99.90;;;;;;4146723;28;20433;-53
2024/03/29 02:56:36;;;;;;;5.70;0.52;;;11.20;99.90;;;;;;4146594;28;20489;-52
2024/03/29 02:58:37;;;;;;;0.13;0.10;;;11.20;99.90;;;;;;4146237;28;20466;-53
2024/03/29 03:00:38;;;;;;;0.40;0.10;;;11.20;99.90;;;;;;4146696;28;20060;-53
2024/03/29 03:02:40;;;;;;;0.10;0.10;;;11.10;99.80;;;;;;4146527;28;20058;-53
2024/03/29 03:04:41;;;;;;;0.85;0.17;;;11.20;99.60;;;;;;4146656;28;20060;-52
2024/03/29 03:06:43;;;;;;;0.85;0.68;;;11.20;99.70;;;;;;4146563;28;20058;-51
2024/03/29 03:11:04;;;;;;;0.20;0.20;;;11.20;99.60;;;;;;4146477;28;20050;-54
2024/03/29 03:13:07;;;;;;;0.30;0.25;;;11.20;99.40;;;;;;4146334;28;20052;-51
2024/03/29 03:15:09;;;;;;;6.22;1.02;;;11.20;99.70;;;;;;4146428;28;20046;-53
2024/03/29 03:17:10;;;;;;;0.57;0.57;;;11.20;99.90;;;;;;4130519;28;20046;-53
2024/03/29 03:19:12;;;;;;;0.17;0.17;;;11.30;99.50;;;;;;4146320;28;20058;-53
2024/03/29 03:21:13;;;;;;;0.32;0.32;;;11.30;99.70;;;;;;4146543;28;20060;-54
2024/03/29 03:23:14;;;;;;;0.20;0.20;;;11.30;99.60;;;;;;4148212;28;20468;-54
2024/03/29 03:25:16;;;;;;;0.75;0.20;;;11.30;99.70;;;;;;4146092;28;20060;-53
2024/03/29 03:27:17;;;;;;;0.60;0.30;;;11.40;99.70;;;;;;4146613;28;20042;-54
2024/03/29 03:29:20;;;;;;;1.45;0.40;;;11.30;99.90;;;;;;4145935;28;20054;-51
2024/03/29 03:31:21;;;;;;;0.10;0.08;;;11.40;99.80;;;;;;4146413;28;20046;-51
2024/03/29 03:33:23;;;;;;;0.28;0.20;;;11.40;99.50;;;;;;4146262;28;20049;-52
2024/03/29 03:35:24;;;;;;;0.80;0.22;;;11.30;99.60;;;;;;4146157;28;20052;-52
2024/03/29 03:37:26;;;;;;;0.38;0.30;;;11.40;99.90;;;;;;4146441;28;20073;-52
2024/03/29 03:39:27;;;;;;;0.17;0.13;;;11.40;99.90;;;;;;4146320;28;20049;-54
2024/03/29 03:41:28;;;;;;;0.75;0.63;;;11.30;99.90;;;;;;4146276;28;20046;-53
2024/03/29 03:43:30;;;;;;;0.20;0.10;;;11.40;99.70;;;;;;4145670;28;20389;-52
2024/03/29 03:45:35;;;;;;;0.60;0.08;;;11.40;99.80;;;;;;4146227;28;20060;-54
2024/03/29 03:47:37;;;;;;;0.68;0.68;;;11.40;99.90;;;;;;4146523;28;20050;-51
2024/03/29 03:49:38;;;;;;;0.55;0.47;;;11.40;99.90;;;;;;4146343;28;20060;-52
2024/03/29 03:51:39;;;;;;;0.20;0.15;;;11.40;99.90;;;;;;4146006;28;20141;-52
2024/03/29 03:53:41;;;;;;;0.10;0.10;;;11.40;99.90;;;;;;4146159;28;20476;-53
2024/03/29 03:55:43;;;;;;;0.10;0.10;;;11.40;99.90;;;;;;4146468;28;20064;-52
2024/03/29 03:57:44;;;;;;;4.70;0.22;;;11.40;99.90;;;;;;4146027;28;20050;-52
2024/03/29 03:59:45;;;;;;;1.05;0.10;;;11.30;99.90;;;;;;4145983;28;20060;-51
2024/03/29 04:01:51;;;;;;;0.30;0.20;;;11.30;99.90;;;;;;4146090;28;20046;-53
2024/03/29 04:03:52;;;;;;;0.20;0.15;;;11.30;99.90;;;;;;4146001;28;20050;-52
2024/03/29 04:05:54;;;;;;;0.82;0.20;;;11.30;99.90;;;;;;4145994;28;20050;-53
2024/03/29 04:07:55;;;;;;;0.35;0.30;;;11.30;99.90;;;;;;4146311;28;20050;-53
2024/03/29 04:09:56;;;;;;;0.38;0.20;;;11.30;99.90;;;;;;4146081;28;20046;-53
2024/03/29 04:11:58;;;;;;;0.30;0.13;;;11.30;99.90;;;;;;4145682;28;20073;-52
2024/03/29 04:13:59;;;;;;;1.35;1.08;;;11.30;99.90;;;;;;4145972;28;20050;-53
2024/03/29 04:16:05;;;;;;;0.08;0.08;;;11.30;99.90;;;;;;4146036;28;20062;-54
2024/03/29 04:18:07;;;;;;;0.35;0.20;;;11.30;99.90;;;;;;4145914;28;20054;-55
2024/03/29 04:20:10;;;;;;;0.10;0.10;;;11.40;99.90;;;;;;4145767;28;20449;-54
2024/03/29 04:22:11;;;;;;;0.15;0.15;;;11.40;99.90;;;;;;4145733;28;20046;-55
2024/03/29 04:24:13;;;;;;;0.98;0.10;;;11.50;99.90;;;;;;4129585;28;20105;-54
2024/03/29 04:26:14;;;;;;;0.10;0.10;;;11.50;99.90;;;;;;4145361;28;20045;-52
2024/03/29 04:28:15;;;;;;;0.15;0.10;;;11.50;99.90;;;;;;4145890;28;20049;-53
2024/03/29 04:30:17;;;;;;;5.78;1.08;;;11.50;99.90;;;;;;4145816;28;20054;-53
2024/03/29 04:32:18;;;;;;;0.43;0.20;;;11.50;99.90;;;;;;4146042;28;20464;-53
2024/03/29 04:34:21;;;;;;;0.10;0.10;;;11.50;99.90;;;;;;4145851;28;20410;-54
2024/03/29 04:36:23;;;;;;;0.03;0.03;;;11.50;99.90;;;;;;4145718;28;20062;-53
2024/03/29 04:38:24;;;;;;;0.82;0.50;;;11.50;99.90;;;;;;4145713;28;20501;-53
2024/03/29 04:40:26;;;;;;;0.00;0.00;;;11.50;99.90;;;;;;4145391;28;20053;-54
2024/03/29 04:42:30;;;;;;;4.03;0.70;;;11.50;99.90;;;;;;4146030;28;20088;-53
2024/03/29 04:44:31;;;;;;;0.45;0.45;;;11.60;99.90;;;;;;4145911;28;20056;-54
2024/03/29 04:46:32;;;;;;;1.33;0.20;;;11.60;99.90;;;;;;4145702;28;20098;-54
2024/03/29 04:48:34;;;;;;;0.20;0.15;;;11.70;99.90;;;;;;4146036;28;20046;-53
2024/03/29 04:50:36;;;;;;;0.22;0.15;;;11.60;99.90;;;;;;4145610;28;20056;-53
2024/03/29 04:52:38;;;;;;;0.00;0.00;;;11.60;99.90;;;;;;4145935;28;20142;-53
2024/03/29 04:54:39;;;;;;;0.08;0.08;;;11.60;99.90;;;;;;4145446;28;20058;-53
2024/03/29 04:56:41;;;;;;;0.28;0.20;;;11.60;99.90;;;;;;4145907;28;20053;-53
2024/03/29 04:58:42;;;;;;;0.10;0.10;;;11.50;99.90;;;;;;4145478;28;20049;-54
2024/03/29 05:00:43;;;;;;;0.65;0.10;;;11.50;99.90;;;;;;4145810;28;20486;-53
2024/03/29 05:02:45;;;;;;;0.20;0.10;;;11.60;99.90;;;;;;4145559;28;20490;-52
2024/03/29 05:04:47;;;;;;;0.45;0.45;;;11.60;99.90;;;;;;4147094;28;20050;-53
2024/03/29 05:06:49;;;;;;;0.70;0.10;;;11.60;99.90;;;;;;4148557;28;20567;-54
2024/03/29 05:08:51;;;;;;;0.65;0.32;;;11.60;99.90;;;;;;4148314;28;20053;-54
2024/03/29 05:10:52;;;;;;;0.95;0.10;;;11.60;99.90;;;;;;4147993;28;20058;-53
2024/03/29 05:12:54;;;;;;;0.15;0.10;;;11.60;99.90;;;;;;4148306;28;20050;-53
2024/03/29 05:14:55;;;;;;;5.82;0.52;;;11.60;99.90;;;;;;4153140;28;20331;-54
2024/03/29 05:16:57;;;;;;;0.22;0.15;;;11.60;99.90;;;;;;4148525;28;20054;-54
2024/03/29 05:18:58;;;;;;;0.20;0.20;;;11.50;99.90;;;;;;4148046;28;20064;-53
2024/03/29 05:21:00;;;;;;;2.30;0.85;;;11.40;99.90;;;;;;4148390;28;20054;-53
2024/03/29 05:23:03;;;;;;;0.43;0.32;;;11.50;99.90;;;;;;4148183;28;20056;-53
2024/03/29 05:25:05;;;;;;;2.55;1.38;;;11.50;99.90;;;;;;4147822;28;20527;-54
2024/03/29 05:27:06;;;;;;;1.00;0.93;;;11.40;99.90;;;;;;4148073;28;20053;-53
2024/03/29 05:29:08;;;;;;;0.03;0.03;;;11.50;99.90;;;;;;4148171;28;20064;-53
2024/03/29 05:31:16;;;;;;;0.50;0.20;;;11.40;99.90;;;;;;4148188;28;20046;-53
2024/03/29 05:33:17;;;;;;;0.10;0.10;;;11.50;99.90;;;;;;4148013;28;20173;-53
2024/03/29 05:35:18;;;;;;;0.20;0.10;;;11.50;99.90;;;;;;4148093;28;20042;-53
2024/03/29 05:37:20;;;;;;;0.10;0.10;;;11.50;99.90;;;;;;4147971;28;20048;-52
2024/03/29 05:39:23;;;;;;;0.32;0.32;;;11.60;99.90;;;;;;4147498;28;20052;-53
2024/03/29 05:41:24;;;;;;;0.00;0.00;;;11.60;99.90;;;;;;4147816;28;20054;-53
2024/03/29 05:43:26;;;;;;;0.17;0.10;;;11.60;99.90;;;;;;4147938;28;20054;-52
2024/03/29 05:45:29;;;;;;;0.43;0.20;;;11.60;99.90;;;;;;4147695;28;20054;-54
2024/03/29 05:47:30;;;;;;;0.73;0.73;;;11.50;99.90;;;;;;4147866;28;20108;-53
2024/03/29 05:49:33;;;;;;;0.50;0.40;;;11.60;99.90;;;;;;4131748;28;20509;-53
2024/03/29 05:51:34;;;;;;;3.00;0.52;;;11.50;99.90;;;;;;4148016;28;20048;-53
2024/03/29 05:53:36;;;;;;;0.17;0.10;;;11.40;99.90;;;;;;4147555;28;20060;-54
2024/03/29 05:55:39;;;;;;;0.73;0.35;;;11.40;99.90;;;;;;4148348;28;20053;-54
2024/03/29 05:57:44;;;;;;;0.30;0.30;;;11.50;99.90;;;;;;4147873;28;20054;-52
2024/03/29 05:59:46;;;;;;;0.22;0.08;;;11.40;99.90;;;;;;4147949;28;20042;-52
2024/03/29 06:01:47;;;;;;;0.40;0.20;;;11.50;99.90;;;;;;4147716;28;20049;-52
2024/03/29 06:03:51;;;;;;;0.80;0.30;;;11.40;99.90;;;;;;4147649;28;20050;-53
2024/03/29 06:05:53;;;;;;;0.20;0.00;;;11.40;99.90;;;;;;4147680;28;20058;-53
2024/03/29 06:07:54;;;;;;;0.10;0.10;;;11.50;99.90;;;;;;4147446;28;20796;-54
2024/03/29 06:09:55;;;;;;;0.25;0.10;;;11.50;99.90;;;;;;4147730;28;20072;-53
2024/03/29 06:11:58;;;;;;;0.70;0.15;;;11.50;99.90;;;;;;4147573;28;20117;-57
2024/03/29 06:18:21;;;;;;;0.20;0.15;;;11.60;99.90;;;;;;4147621;28;20062;-53
2024/03/29 06:20:22;;;;;;;1.13;0.50;;;11.60;99.90;;;;;;4147676;28;20054;-52
2024/03/29 06:22:24;;;;;;;1.77;0.80;;;11.60;99.90;;;;;;4147069;28;20521;-53
2024/03/29 06:24:26;;;;;;;4.28;0.35;;;11.60;99.90;;;;;;4147448;28;20050;-53
2024/03/29 06:26:27;;;;;;;0.22;0.20;;;11.60;99.90;;;;;;4147425;28;20046;-53
2024/03/29 06:28:30;;;;;;;0.47;0.10;;;11.60;99.90;;;;;;4147338;28;20057;-53
2024/03/29 06:30:31;;;;;;;0.20;0.20;;;11.60;99.90;;;;;;4147468;28;20116;-53
2024/03/29 06:32:33;;;;;;;0.17;0.10;;;11.60;99.90;;;;;;4147494;28;20076;-54
2024/03/29 06:34:34;;;;;;;0.20;0.20;;;11.50;99.90;;;;;;4147842;28;20056;-54
2024/03/29 06:36:36;;;;;;;0.40;0.40;;;11.50;99.90;;;;;;4147024;28;20054;-54
2024/03/29 06:38:38;;;;;;;0.57;0.47;;;11.60;99.90;;;;;;4147163;28;20096;-54
2024/03/29 06:40:39;;;;;;;0.03;0.03;;;11.60;99.80;;;;;;4147252;28;20052;-53
2024/03/29 06:42:41;;;;;;;0.00;0.00;;;11.60;99.90;;;;;;4147104;28;20050;-53
2024/03/29 06:44:43;;;;;;;0.40;0.10;;;11.60;99.90;;;;;;4147039;28;20052;-53
2024/03/29 06:46:45;;;;;;;0.30;0.30;;;11.50;99.90;;;;;;4146711;28;20058;-53
2024/03/29 06:48:49;;;;;;;0.10;0.10;;;11.50;99.90;;;;;;4146939;28;20064;-53
2024/03/29 06:50:50;;;;;;;0.95;0.65;;;11.50;99.90;;;;;;4146698;28;20050;-53
2024/03/29 06:52:52;;;;;;;0.90;0.20;;;11.60;99.90;;;;;;4146941;28;20092;-54
2024/03/29 06:54:53;;;;;;;0.45;0.30;;;11.60;99.90;;;;;;4146960;28;20519;-53
2024/03/29 06:56:55;;;;;;;0.50;0.20;;;11.60;99.90;;;;;;4146678;28;20054;-54
2024/03/29 06:58:56;;;;;;;0.65;0.20;;;11.60;99.90;;;;;;4146988;28;20054;-53
2024/03/29 07:00:59;;;;;;;0.22;0.10;;;11.70;99.90;;;;;;4147226;28;20054;-53
2024/03/29 07:03:00;;;;;;;0.57;0.10;;;11.70;99.90;;;;;;4146733;28;20057;-53
2024/03/29 07:05:07;;;;;;;0.10;0.10;;;11.80;99.90;;;;;;4146927;28;20436;-53
2024/03/29 07:07:08;;;;;;;0.60;0.10;;;11.80;99.80;;;;;;4146869;28;20053;-54
2024/03/29 07:09:09;;;;;;;13.35;0.75;;;11.80;99.90;;;;;;4146905;28;20047;-55
2024/03/29 07:11:11;;;;;;;0.10;0.10;;;11.80;99.90;;;;;;4146716;28;20460;-54
2024/03/29 07:13:12;;;;;;;0.38;0.38;;;11.90;99.80;;;;;;4146644;28;20052;-54
2024/03/29 07:15:14;;;;;;;0.20;0.17;;;11.90;99.90;;;;;;4146506;28;20067;-53
2024/03/29 07:17:17;;;;;;;0.10;0.10;;;11.90;99.90;;;;;;4146398;28;20525;-53
2024/03/29 07:19:18;;;;;;;0.65;0.20;;;11.90;99.80;;;;;;4146711;28;20500;-53
2024/03/29 07:21:20;;;;;;;0.10;0.10;;;12.00;99.90;;;;;;4146121;28;20045;-54
2024/03/29 07:23:21;;;;;;;2.45;0.50;;;12.10;99.90;;;;;;4146505;28;20045;-53
2024/03/29 07:25:23;;;;;;;2.20;0.32;;;12.10;99.90;;;;;;4146299;28;20052;-53
2024/03/29 07:27:25;;;;;;;0.28;0.28;;;12.10;99.90;;;;;;4145840;28;20162;-53
2024/03/29 07:29:26;;;;;;;0.43;0.30;;;12.20;99.90;;;;;;4146483;28;20071;-53
2024/03/29 07:31:27;;;;;;;0.15;0.13;;;12.20;99.90;;;;;;4146559;28;20504;-54
2024/03/29 07:33:30;;;;;;;0.20;0.20;;;12.20;99.90;;;;;;4146411;28;20052;-53
2024/03/29 07:35:32;;;;;;;0.20;0.15;;;12.20;99.90;;;;;;4145914;28;20117;-52
2024/03/29 07:37:33;;;;;;;2.10;1.05;;;12.20;99.90;;;;;;4146446;28;20060;-53
2024/03/29 07:39:35;;;;;;;0.95;0.20;;;12.30;99.90;;;;;;4146606;28;20046;-51
2024/03/29 07:41:36;;;;;;;0.17;0.17;;;12.30;99.90;;;;;;4147167;28;20050;-52
2024/03/29 07:43:39;;;;;;;0.10;0.10;;;12.40;99.90;;;;;;4147415;28;20050;-52
2024/03/29 07:45:43;;;;;;;1.35;1.00;;;12.40;99.90;;;;;;4146480;28;20057;-52
2024/03/29 07:47:47;;;;;;;0.40;0.20;;;12.40;99.90;;;;;;4146737;28;20050;-53
2024/03/29 07:49:49;;;;;;;0.20;0.13;;;12.30;99.90;;;;;;4146179;28;20052;-54
2024/03/29 07:51:51;;;;;;;0.30;0.20;;;12.30;99.90;;;;;;4146297;28;20060;-55
2024/03/29 07:53:52;;;;;;;1.05;0.20;;;12.40;99.90;;;;;;4146540;28;20076;-54
2024/03/29 07:55:54;;;;;;;0.85;0.30;;;12.50;99.90;;;;;;4146372;28;20076;-54
2024/03/29 07:57:56;;;;;;;0.22;0.22;;;12.50;99.90;;;;;;4130192;28;20073;-54
2024/03/29 07:59:57;;;;;;;0.82;0.10;;;12.50;99.90;;;;;;4162763;28;20049;-54
2024/03/29 08:02:02;;;;;;;0.13;0.13;;;12.60;99.90;;;;;;4146355;28;20390;-54
2024/03/29 08:04:03;;;;;;;;;;;12.60;99.90;;;;;;4146782;28;20056;-54
2024/03/29 08:06:06;;;;;;;0.20;0.13;;;12.60;99.90;;;;;;4146575;28;20296;-53
2024/03/29 08:08:08;;;;;;;0.47;0.22;;;12.60;99.90;;;;;;4146195;28;20054;-53
2024/03/29 08:10:10;;;;;;;0.10;0.10;;;12.70;99.90;;;;;;4145979;28;20076;-53
2024/03/29 08:12:11;;;;;;;0.17;0.10;;;12.70;99.90;;;;;;4130388;28;20057;-55
2024/03/29 08:14:13;;;;;;;0.10;0.10;;;12.80;99.90;;;;;;4146457;28;20397;-53
2024/03/29 08:16:16;;;;;;;0.13;0.10;;;12.90;99.90;;;;;;4146447;28;20060;-55
2024/03/29 08:18:18;;;;;;;0.15;0.10;;;12.90;99.80;;;;;;4145622;28;20061;-53
2024/03/29 08:20:19;;;;;;;0.70;0.13;;;12.80;99.70;;;;;;4145892;28;20042;-53
2024/03/29 08:22:22;;;;;;;5.93;0.50;;;12.80;99.90;;;;;;4145989;28;20046;-56
2024/03/29 08:24:23;;;;;;;0.22;0.22;;;12.90;99.80;;;;;;4146016;28;20057;-54
2024/03/29 08:26:25;;;;;;;0.08;0.08;;;13.00;99.70;;;;;;4145997;28;20083;-52
2024/03/29 08:28:26;;;;;;;0.08;0.08;;;13.10;99.60;;;;;;4146190;28;20485;-51
2024/03/29 08:30:34;;;;;;;0.57;0.10;;;13.10;99.40;;;;;;4146181;28;20050;-54
2024/03/29 08:32:35;;;;;;;1.30;0.30;;;13.10;99.20;;;;;;4146040;28;20046;-52
2024/03/29 08:34:37;;;;;;;0.22;0.13;;;13.10;99.10;;;;;;4146314;28;20045;-53
2024/03/29 08:36:38;;;;;;;0.00;0.00;;;13.10;98.90;;;;;;4146095;28;20513;-53
2024/03/29 08:38:43;;;;;;;0.40;0.28;;;13.10;98.70;;;;;;4145939;28;20072;-52
2024/03/29 08:40:47;;;;;;;0.10;0.00;;;13.20;98.60;;;;;;4149314;28;20056;-52
2024/03/29 08:42:50;;;;;;;0.03;0.03;;;13.30;98.90;;;;;;4149483;28;20482;-55
2024/03/29 08:44:52;;;;;;;2.38;0.30;;;13.40;98.50;;;;;;4149662;28;20049;-52
2024/03/29 08:46:56;;;;;;;1.00;0.45;;;13.40;98.30;;;;;;4148966;28;20057;-54
2024/03/29 08:48:58;;;;;;;0.67;0.13;;;13.50;98.50;;;;;;4149211;28;20041;-54
2024/03/29 08:50:59;;;;;;;0.25;0.10;;;13.60;98.20;;;;;;4148991;28;20065;-52
2024/03/29 08:53:01;;;;;;;0.52;0.10;;;13.50;98.00;;;;;;4148657;28;20046;-52
2024/03/29 08:55:04;;;;;;;0.63;0.40;;;13.50;97.80;;;;;;4132915;28;20042;-52
2024/03/29 08:57:06;;;;;;;0.00;0.00;;;13.40;97.60;;;;;;4149316;28;20486;-52
2024/03/29 08:59:09;;;;;;;0.32;0.05;;;13.40;97.80;;;;;;4149015;28;20050;-52
2024/03/29 09:01:14;;;;;;;0.10;0.10;;;13.50;97.60;;;;;;4148389;28;20052;-52
2024/03/29 09:03:15;;;;;;;1.20;0.20;;;13.50;98.40;;;;;;4148703;28;20409;-52
2024/03/29 09:05:17;;;;;;;0.00;0.00;;;13.50;98.10;;;;;;4132338;28;20050;-52
2024/03/29 09:07:19;;;;;;;0.10;0.00;;;13.60;97.70;;;;;;4148609;28;20056;-52
2024/03/29 09:09:21;;;;;;;0.10;0.05;;;13.70;97.80;;;;;;4148587;28;20053;-52
2024/03/29 09:11:24;;;;;;;0.32;0.20;;;13.80;97.90;;;;;;4148669;28;20046;-54
2024/03/29 09:13:25;;;;;;;0.20;0.10;;;13.80;97.50;;;;;;4148762;28;20456;-52
2024/03/29 09:15:27;;;;;;;0.68;0.65;;;13.80;97.30;;;;;;4149162;28;20045;-51
2024/03/29 09:17:28;;;;;;;0.10;0.10;;;13.70;97.20;;;;;;4148053;28;20057;-51
2024/03/29 09:19:33;;;;;;;0.65;0.20;;;13.70;97.50;;;;;;4149100;28;20046;-52
2024/03/29 09:21:34;;;;;;;0.10;0.10;;;13.80;97.40;;;;;;4148795;28;20056;-52
2024/03/29 09:23:36;;;;;;;1.30;0.10;;;13.80;97.40;;;;;;4148612;28;20050;-51
2024/03/29 09:25:39;;;;;;;0.10;0.10;;;13.80;97.00;;;;;;4149243;28;20509;-52
2024/03/29 09:27:46;;;;;;;0.13;0.10;;;13.80;97.70;;;;;;4148947;28;20052;-51
2024/03/29 09:29:48;;;;;;;0.10;0.10;;;13.90;97.00;;;;;;4150375;28;21008;-55
2024/03/29 09:31:50;;;;;;;1.63;0.73;;;14.00;97.10;;;;;;4148699;28;20060;-52
2024/03/29 09:33:57;;;;;;;0.40;0.40;;;14.00;96.90;;;;;;4149836;28;20105;-52
2024/03/29 09:35:59;;;;;;;0.38;0.20;;;14.00;96.70;;;;;;4149534;28;20042;-53
2024/03/29 09:38:00;;;;;;;0.03;0.03;;;13.90;96.50;;;;;;4149867;28;20050;-55
2024/03/29 09:40:02;;;;;;;0.08;0.08;;;14.10;96.90;;;;;;4149069;28;20505;-55
2024/03/29 09:42:06;;;;;;;0.20;0.20;;;14.30;96.70;;;;;;4148393;28;20058;-54
2024/03/29 09:44:10;;;;;;;0.25;0.10;;;14.40;96.10;;;;;;4148219;28;20073;-55
2024/03/29 09:46:15;;;;;;;0.28;0.17;;;14.50;96.30;;;;;;4147830;28;20452;-53
2024/03/29 09:48:16;;;;;;;0.30;0.20;;;14.50;95.90;;;;;;4148088;28;20049;-52
2024/03/29 09:50:18;;;;;;;0.15;0.13;;;14.50;95.90;;;;;;4148185;28;20046;-51
2024/03/29 09:52:20;;;;;;;0.22;0.10;;;14.50;95.50;;;;;;4148128;28;20052;-53
2024/03/29 09:54:22;;;;;;;0.40;0.25;;;14.50;95.10;;;;;;4147871;28;20058;-52
2024/03/29 09:56:26;;;;;;;0.35;0.20;;;14.60;95.60;;;;;;4147833;28;20050;-54
2024/03/29 09:58:27;;;;;;;0.88;0.30;;;14.70;95.50;;;;;;4147948;28;20054;-54
2024/03/29 10:00:31;;;;;;;0.47;0.15;;;14.70;95.00;;;;;;4147585;28;20054;-51
2024/03/29 10:02:33;;;;;;;0.20;0.10;;;14.70;95.10;;;;;;4147968;28;20052;-54
2024/03/29 10:04:36;;;;;;;2.22;0.73;;;14.70;94.50;;;;;;4147686;28;20485;-51
2024/03/29 10:06:39;;;;;;;0.17;0.17;;;14.70;94.40;;;;;;4147762;28;20065;-52
2024/03/29 10:08:41;;;;;;;0.15;0.10;;;14.70;94.70;;;;;;4131776;28;20050;-51
2024/03/29 10:10:42;;;;;;;0.30;0.10;;;14.70;94.80;;;;;;4147733;28;20046;-51
2024/03/29 10:12:44;;;;;;;2.33;0.77;;;14.60;94.60;;;;;;4131622;28;20054;-51
2024/03/29 10:14:49;;;;;;;0.32;0.20;;;14.50;95.00;;;;;;4147183;28;20056;-52
2024/03/29 10:16:52;;;;;;;;;;;14.60;95.10;;;;;;4148237;28;20382;-51
2024/03/29 10:18:53;;;;;;;0.47;0.20;;;14.70;95.00;;;;;;4147368;28;19925;-51
2024/03/29 10:21:01;;;;;;;0.10;0.10;;;14.50;95.40;;;;;;4147204;28;20056;-52
2024/03/29 10:23:03;;;;;;;0.38;0.25;;;14.60;95.00;;;;;;4147313;28;20064;-53
2024/03/29 10:25:05;;;;;;;0.10;0.10;;;14.70;94.80;;;;;;4147880;28;20654;-52
2024/03/29 10:27:07;;;;;;;0.10;0.10;;;14.70;94.30;;;;;;4145921;28;20056;-51
2024/03/29 10:29:08;;;;;;;0.03;0.00;;;14.80;95.10;;;;;;4145795;28;20518;-51
2024/03/29 10:31:11;;;;;;;0.22;0.10;;;14.90;94.30;;;;;;4148084;28;20520;-50
2024/03/29 10:33:16;;;;;;;0.25;0.00;;;15.10;93.80;;;;;;4138086;28;20046;-52
2024/03/29 10:35:17;;;;;;;0.03;0.03;;;15.30;93.60;;;;;;4147187;28;20067;-52
2024/03/29 10:37:27;;;;;;;0.10;0.10;;;15.40;93.30;;;;;;4151158;28;20050;-52
2024/03/29 10:39:31;;;;;;;2.03;0.98;;;15.70;93.90;;;;;;4142094;28;20053;-52
2024/03/29 10:41:33;;;;;;;0.40;0.00;;;15.70;93.10;;;;;;4141817;28;20053;-53
2024/03/29 10:43:38;;;;;;;0.38;0.15;;;15.70;93.50;;;;;;4146120;28;20046;-52